Terminal Aerodrome Forecast
Issued by NWS

Home | Current Version | Previous Version | Text Only | Print | Product List | Glossary On
Versions: 1 2 3 4 5 6 7 8 9 10 11 12 13 14
000
FTUS45 KABQ 281750
TAFROW
TAF
KROW 281750Z 2818/2918 16008KT P6SM FEW120
     FM282200 16011KT P6SM VCTS SCT080CB BKN150
     FM290200 18008KT P6SM BKN120
     FM291100 VRB05KT P6SM BKN018
     FM291700 VRB05KT P6SM FEW020=

USA.gov is the U.S. government's official web portal to all federal, state and local government web resources and services.